createdAt,value
2018-07-24T00:00:15.275Z,1000.90
2018-07-24T00:01:15.275Z,1000.91
2018-07-24T00:02:15.279Z,1000.85
2018-07-24T00:03:15.287Z,1000.89
2018-07-24T00:04:15.290Z,1000.84
2018-07-24T00:05:15.286Z,1000.86
2018-07-24T00:06:15.288Z,1000.85
2018-07-24T00:07:15.293Z,1000.85
2018-07-24T00:08:15.300Z,1000.85
2018-07-24T00:09:15.298Z,1000.82
2018-07-24T00:10:15.337Z,1000.84
2018-07-24T00:11:15.306Z,1000.84
2018-07-24T00:12:15.310Z,1000.84
2018-07-24T00:13:15.312Z,1000.81
2018-07-24T00:14:15.313Z,1000.81
2018-07-24T00:15:15.326Z,1000.81
2018-07-24T00:16:15.321Z,1000.79
2018-07-24T00:17:15.322Z,1000.77
2018-07-24T00:18:15.324Z,1000.81
2018-07-24T00:19:15.327Z,1000.76
2018-07-24T00:20:15.331Z,1000.79
2018-07-24T00:21:15.331Z,1000.78
2018-07-24T00:22:15.338Z,1000.76
2018-07-24T00:23:15.339Z,1000.74
2018-07-24T00:24:15.342Z,1000.75
2018-07-24T00:25:15.345Z,1000.74
2018-07-24T00:26:15.349Z,1000.74
2018-07-24T00:27:15.348Z,1000.72
2018-07-24T00:28:15.351Z,1000.69
2018-07-24T00:29:15.354Z,1000.70
2018-07-24T00:30:15.361Z,1000.71
2018-07-24T00:31:15.361Z,1000.66
2018-07-24T00:32:15.431Z,1000.69
2018-07-24T00:33:15.367Z,1000.69
2018-07-24T00:34:15.368Z,1000.72
2018-07-24T00:35:15.372Z,1000.69
2018-07-24T00:36:15.373Z,1000.68
2018-07-24T00:37:15.375Z,1000.71
2018-07-24T00:38:15.377Z,1000.72
2018-07-24T00:39:15.380Z,1000.72
2018-07-24T00:40:15.386Z,1000.75
2018-07-24T00:41:15.405Z,1000.73
2018-07-24T00:42:15.391Z,1000.70
2018-07-24T00:43:15.400Z,1000.70
2018-07-24T00:44:15.398Z,1000.71
2018-07-24T00:45:15.396Z,1000.68
2018-07-24T00:46:15.399Z,1000.68
2018-07-24T00:47:15.404Z,1000.68
2018-07-24T00:48:15.403Z,1000.65
2018-07-24T00:49:15.412Z,1000.68
2018-07-24T00:50:15.420Z,1000.69
2018-07-24T00:51:15.413Z,1000.69
2018-07-24T00:52:15.417Z,1000.71
2018-07-24T00:53:15.415Z,1000.68
2018-07-24T00:54:15.447Z,1000.69
2018-07-24T00:55:15.420Z,1000.70
2018-07-24T00:56:15.424Z,1000.67
2018-07-24T00:57:15.429Z,1000.67
2018-07-24T00:58:15.427Z,1000.63
2018-07-24T00:59:15.429Z,1000.64
2018-07-24T01:00:15.438Z,1000.64
2018-07-24T01:01:15.435Z,1000.65
2018-07-24T01:02:15.440Z,1000.64
2018-07-24T01:03:15.439Z,1000.66
2018-07-24T01:04:15.443Z,1000.62
2018-07-24T01:05:15.445Z,1000.60
2018-07-24T01:06:15.446Z,1000.59
2018-07-24T01:07:15.450Z,1000.60
2018-07-24T01:08:15.462Z,1000.61
2018-07-24T01:09:15.454Z,1000.58
2018-07-24T01:10:15.460Z,1000.60
2018-07-24T01:11:15.462Z,1000.60
2018-07-24T01:12:15.461Z,1000.60
2018-07-24T01:13:15.463Z,1000.57
2018-07-24T01:14:15.464Z,1000.59
2018-07-24T01:15:15.473Z,1000.57
2018-07-24T01:16:15.470Z,1000.56
2018-07-24T01:17:15.471Z,1000.56
2018-07-24T01:18:15.473Z,1000.58
2018-07-24T01:19:15.479Z,1000.60
2018-07-24T01:20:15.482Z,1000.59
2018-07-24T01:21:15.480Z,1000.57
2018-07-24T01:22:15.482Z,1000.58
2018-07-24T01:23:15.485Z,1000.56
2018-07-24T01:24:15.517Z,1000.56
2018-07-24T01:25:15.488Z,1000.56
2018-07-24T01:26:15.494Z,1000.55
2018-07-24T01:27:15.502Z,1000.56
2018-07-24T01:28:15.496Z,1000.53
2018-07-24T01:29:15.511Z,1000.53
2018-07-24T01:30:15.498Z,1000.53
2018-07-24T01:31:15.501Z,1000.54
2018-07-24T01:32:15.507Z,1000.53
2018-07-24T01:33:15.506Z,1000.54
2018-07-24T01:34:15.508Z,1000.51
2018-07-24T01:35:15.513Z,1000.56
2018-07-24T01:36:15.515Z,1000.54
2018-07-24T01:37:15.516Z,1000.57
2018-07-24T01:38:15.518Z,1000.54
2018-07-24T01:39:15.518Z,1000.54
2018-07-24T01:40:15.521Z,1000.58
2018-07-24T01:41:15.536Z,1000.54
2018-07-24T01:42:15.525Z,1000.55
2018-07-24T01:43:15.527Z,1000.55
2018-07-24T01:44:15.533Z,1000.51
2018-07-24T01:45:15.541Z,1000.56
2018-07-24T01:46:15.541Z,1000.53
2018-07-24T01:47:15.537Z,1000.55
2018-07-24T01:48:15.538Z,1000.55
2018-07-24T01:49:15.562Z,1000.58
2018-07-24T01:50:15.541Z,1000.57
2018-07-24T01:51:15.544Z,1000.58
2018-07-24T01:52:15.551Z,1000.54
2018-07-24T01:53:15.548Z,1000.57
2018-07-24T01:54:15.550Z,1000.56
2018-07-24T01:55:15.552Z,1000.52
2018-07-24T01:56:15.554Z,1000.54
2018-07-24T01:57:15.558Z,1000.56
2018-07-24T01:58:15.557Z,1000.55
2018-07-24T01:59:15.559Z,1000.54
2018-07-24T02:00:15.562Z,1000.57
2018-07-24T02:01:15.562Z,1000.59
2018-07-24T02:02:15.565Z,1000.55
2018-07-24T02:03:15.571Z,1000.57
2018-07-24T02:04:15.572Z,1000.59
2018-07-24T02:05:15.580Z,1000.58
2018-07-24T02:06:15.573Z,1000.58
2018-07-24T02:07:15.575Z,1000.54
2018-07-24T02:08:15.578Z,1000.59
2018-07-24T02:09:15.581Z,1000.56
2018-07-24T02:10:15.581Z,1000.57
2018-07-24T02:11:15.582Z,1000.58
2018-07-24T02:12:15.592Z,1000.56
2018-07-24T02:13:15.586Z,1000.53
2018-07-24T02:14:15.588Z,1000.48
2018-07-24T02:15:15.591Z,1000.49
2018-07-24T02:16:15.593Z,1000.49
2018-07-24T02:17:15.595Z,1000.51
2018-07-24T02:18:15.594Z,1000.52
2018-07-24T02:19:15.597Z,1000.55
2018-07-24T02:20:15.599Z,1000.56
2018-07-24T02:21:15.603Z,1000.53
2018-07-24T02:22:15.602Z,1000.53
2018-07-24T02:23:15.606Z,1000.53
2018-07-24T02:24:15.606Z,1000.60
2018-07-24T02:25:15.609Z,1000.54
2018-07-24T02:26:15.610Z,1000.53
2018-07-24T02:27:15.612Z,1000.53
2018-07-24T02:28:15.613Z,1000.52
2018-07-24T02:29:15.615Z,1000.51
2018-07-24T02:30:15.617Z,1000.49
2018-07-24T02:31:15.621Z,1000.50
2018-07-24T02:32:15.653Z,1000.48
2018-07-24T02:33:15.630Z,1000.49
2018-07-24T02:34:15.637Z,1000.48
2018-07-24T02:35:15.625Z,1000.46
2018-07-24T02:36:15.630Z,1000.43
2018-07-24T02:37:15.641Z,1000.46
2018-07-24T02:38:15.637Z,1000.48
2018-07-24T02:39:15.634Z,1000.45
2018-07-24T02:40:15.637Z,1000.47
2018-07-24T02:41:15.638Z,1000.49
2018-07-24T02:42:15.641Z,1000.48
2018-07-24T02:43:15.641Z,1000.52
2018-07-24T02:44:15.643Z,1000.48
2018-07-24T02:45:15.647Z,1000.50
2018-07-24T02:46:15.646Z,1000.48
2018-07-24T02:47:15.650Z,1000.46
2018-07-24T02:48:15.650Z,1000.52
2018-07-24T02:49:15.651Z,1000.49
2018-07-24T02:50:15.655Z,1000.52
2018-07-24T02:51:15.655Z,1000.53
2018-07-24T02:52:15.660Z,1000.51
2018-07-24T02:53:15.657Z,1000.56
2018-07-24T02:54:15.662Z,1000.54
2018-07-24T02:55:15.661Z,1000.57
2018-07-24T02:56:15.663Z,1000.55
2018-07-24T02:57:15.676Z,1000.57
2018-07-24T02:58:15.669Z,1000.59
2018-07-24T02:59:15.668Z,1000.61
2018-07-24T03:00:15.669Z,1000.60
2018-07-24T03:01:15.673Z,1000.58
2018-07-24T03:02:15.673Z,1000.58
2018-07-24T03:03:15.675Z,1000.58
2018-07-24T03:04:15.676Z,1000.58
2018-07-24T03:05:15.678Z,1000.56
2018-07-24T03:06:15.679Z,1000.58
2018-07-24T03:07:15.683Z,1000.56
2018-07-24T03:08:15.693Z,1000.55
2018-07-24T03:09:15.683Z,1000.55
2018-07-24T03:10:15.694Z,1000.58
2018-07-24T03:11:15.690Z,1000.53
2018-07-24T03:12:15.692Z,1000.51
2018-07-24T03:13:15.691Z,1000.53
2018-07-24T03:14:15.695Z,1000.53
2018-07-24T03:15:15.696Z,1000.50
2018-07-24T03:16:15.750Z,1000.53
2018-07-24T03:17:15.696Z,1000.53
2018-07-24T03:18:36.708Z,1000.50
2018-07-24T03:19:15.701Z,1000.52
2018-07-24T03:20:15.702Z,1000.52
2018-07-24T03:21:15.704Z,1000.54
2018-07-24T03:22:15.713Z,1000.58
2018-07-24T03:23:15.708Z,1000.56
2018-07-24T03:24:15.713Z,1000.58
2018-07-24T03:25:15.712Z,1000.61
2018-07-24T03:26:15.712Z,1000.57
2018-07-24T03:27:15.712Z,1000.59
2018-07-24T03:28:15.717Z,1000.58
2018-07-24T03:29:15.717Z,1000.60
2018-07-24T03:30:15.718Z,1000.61
2018-07-24T03:31:15.720Z,1000.58
2018-07-24T03:32:15.723Z,1000.57
2018-07-24T03:33:15.724Z,1000.54
2018-07-24T03:34:15.725Z,1000.53
2018-07-24T03:35:15.763Z,1000.54
2018-07-24T03:36:15.727Z,1000.56
2018-07-24T03:37:15.727Z,1000.54
2018-07-24T03:38:15.729Z,1000.57
2018-07-24T03:39:15.733Z,1000.57
2018-07-24T03:40:15.733Z,1000.59
2018-07-24T03:41:15.735Z,1000.60
2018-07-24T03:42:15.735Z,1000.63
2018-07-24T03:43:15.741Z,1000.64
2018-07-24T03:44:15.739Z,1000.62
2018-07-24T03:45:15.743Z,1000.61
2018-07-24T03:46:15.743Z,1000.62
2018-07-24T03:47:15.744Z,1000.65
2018-07-24T03:48:15.744Z,1000.66
2018-07-24T03:49:15.746Z,1000.60
2018-07-24T03:50:15.749Z,1000.65
2018-07-24T03:51:15.756Z,1000.58
2018-07-24T03:52:15.751Z,1000.60
2018-07-24T03:53:15.755Z,1000.61
2018-07-24T03:54:15.754Z,1000.58
2018-07-24T03:55:15.756Z,1000.61
2018-07-24T03:56:15.757Z,1000.57
2018-07-24T03:57:15.761Z,1000.58
2018-07-24T03:58:15.767Z,1000.60
2018-07-24T03:59:15.762Z,1000.58
2018-07-24T04:00:15.764Z,1000.56
2018-07-24T04:01:15.808Z,1000.55
2018-07-24T04:02:15.798Z,1000.58
2018-07-24T04:03:15.769Z,1000.57
2018-07-24T04:04:15.771Z,1000.57
2018-07-24T04:05:15.770Z,1000.54
2018-07-24T04:06:15.775Z,1000.52
2018-07-24T04:07:15.775Z,1000.52
2018-07-24T04:08:15.778Z,1000.52
2018-07-24T04:09:15.780Z,1000.51
2018-07-24T04:10:15.784Z,1000.51
2018-07-24T04:11:15.780Z,1000.54
2018-07-24T04:12:15.783Z,1000.53
2018-07-24T04:13:15.782Z,1000.53
2018-07-24T04:14:15.828Z,1000.55
2018-07-24T04:15:15.792Z,1000.57
2018-07-24T04:16:15.789Z,1000.57
2018-07-24T04:17:15.788Z,1000.60
2018-07-24T04:18:15.789Z,1000.60
2018-07-24T04:19:15.801Z,1000.59
2018-07-24T04:20:15.794Z,1000.60
2018-07-24T04:21:15.893Z,1000.59
2018-07-24T04:22:15.830Z,1000.63
2018-07-24T04:23:15.800Z,1000.62
2018-07-24T04:24:15.803Z,1000.64
2018-07-24T04:25:15.802Z,1000.64
2018-07-24T04:26:15.802Z,1000.63
2018-07-24T04:27:16.489Z,1000.62
2018-07-24T04:28:15.979Z,1000.62
2018-07-24T04:29:15.811Z,1000.60
2018-07-24T04:30:15.814Z,1000.61
2018-07-24T04:31:15.811Z,1000.61
2018-07-24T04:32:15.815Z,1000.58
2018-07-24T04:33:15.816Z,1000.57
2018-07-24T04:34:15.818Z,1000.60
2018-07-24T04:35:15.818Z,1000.61
2018-07-24T04:36:15.821Z,1000.61
2018-07-24T04:37:15.820Z,1000.63
2018-07-24T04:38:15.822Z,1000.62
2018-07-24T04:39:15.823Z,1000.58
2018-07-24T04:40:15.848Z,1000.59
2018-07-24T04:41:15.903Z,1000.61
2018-07-24T04:42:15.830Z,1000.59
2018-07-24T04:43:15.830Z,1000.61
2018-07-24T04:44:15.832Z,1000.59
2018-07-24T04:45:15.837Z,1000.62
2018-07-24T04:46:15.834Z,1000.61
2018-07-24T04:47:15.835Z,1000.60
2018-07-24T04:48:15.840Z,1000.61
2018-07-24T04:49:15.840Z,1000.61
2018-07-24T04:50:15.840Z,1000.60
2018-07-24T04:51:15.843Z,1000.58
2018-07-24T04:52:15.845Z,1000.65
2018-07-24T04:53:15.845Z,1000.60
2018-07-24T04:54:15.848Z,1000.57
2018-07-24T04:55:15.849Z,1000.60
2018-07-24T04:56:15.854Z,1000.62
2018-07-24T04:57:15.852Z,1000.60
2018-07-24T04:58:15.855Z,1000.62
2018-07-24T04:59:15.857Z,1000.64
2018-07-24T05:00:15.861Z,1000.64
2018-07-24T05:01:15.905Z,1000.63
2018-07-24T05:02:15.862Z,1000.63
2018-07-24T05:03:15.872Z,1000.63
2018-07-24T05:04:15.870Z,1000.61
2018-07-24T05:05:15.867Z,1000.60
2018-07-24T05:06:15.870Z,1000.63
2018-07-24T05:07:15.872Z,1000.62
2018-07-24T05:08:15.875Z,1000.61
2018-07-24T05:09:15.887Z,1000.61
2018-07-24T05:10:15.932Z,1000.63
2018-07-24T05:11:15.882Z,1000.66
2018-07-24T05:12:15.885Z,1000.64
2018-07-24T05:13:15.886Z,1000.60
2018-07-24T05:14:15.887Z,1000.63
2018-07-24T05:15:15.931Z,1000.65
2018-07-24T05:16:15.893Z,1000.66
2018-07-24T05:17:15.926Z,1000.61
2018-07-24T05:18:15.902Z,1000.63
2018-07-24T05:19:15.899Z,1000.70
2018-07-24T05:20:15.902Z,1000.69
2018-07-24T05:21:15.914Z,1000.70
2018-07-24T05:22:15.911Z,1000.70
2018-07-24T05:23:15.910Z,1000.71
2018-07-24T05:24:15.914Z,1000.76
2018-07-24T05:25:15.916Z,1000.74
2018-07-24T05:26:15.919Z,1000.76
2018-07-24T05:27:15.922Z,1000.80
2018-07-24T05:28:15.925Z,1000.74
2018-07-24T05:29:15.928Z,1000.76
2018-07-24T05:30:15.932Z,1000.74
2018-07-24T05:31:15.934Z,1000.76
2018-07-24T05:32:15.999Z,1000.74
2018-07-24T05:33:15.991Z,1000.73
2018-07-24T05:34:15.946Z,1000.75
2018-07-24T05:35:15.949Z,1000.79
2018-07-24T05:36:15.954Z,1000.79
2018-07-24T05:37:15.955Z,1000.78
2018-07-24T05:38:15.961Z,1000.78
2018-07-24T05:39:15.966Z,1000.86
2018-07-24T05:40:15.969Z,1000.85
2018-07-24T05:41:15.974Z,1000.86
2018-07-24T05:42:15.975Z,1000.88
2018-07-24T05:43:15.981Z,1000.91
2018-07-24T05:44:15.987Z,1000.87
2018-07-24T05:45:15.989Z,1000.89
2018-07-24T05:46:16.001Z,1000.87
2018-07-24T05:47:16.005Z,1000.89
2018-07-24T05:48:15.998Z,1000.88
2018-07-24T05:49:16.001Z,1000.90
2018-07-24T05:50:16.008Z,1000.86
2018-07-24T05:51:16.009Z,1000.88
2018-07-24T05:52:16.014Z,1000.86
2018-07-24T05:53:16.018Z,1000.86
2018-07-24T05:54:16.020Z,1000.85
2018-07-24T05:55:16.024Z,1000.90
2018-07-24T05:56:16.028Z,1000.89
2018-07-24T05:57:16.031Z,1000.86
2018-07-24T05:58:16.034Z,1000.91
2018-07-24T05:59:16.048Z,1000.88
2018-07-24T06:00:16.042Z,1000.90
2018-07-24T06:01:16.044Z,1000.90
2018-07-24T06:02:16.058Z,1000.91
2018-07-24T06:03:16.052Z,1000.90
2018-07-24T06:04:16.056Z,1000.87
2018-07-24T06:05:16.061Z,1000.89
2018-07-24T06:06:16.063Z,1000.85
2018-07-24T06:07:16.123Z,1000.86
2018-07-24T06:08:16.073Z,1000.87
2018-07-24T06:09:16.073Z,1000.85
2018-07-24T06:10:16.077Z,1000.87
2018-07-24T06:11:16.081Z,1000.87
2018-07-24T06:12:16.086Z,1000.84
2018-07-24T06:13:16.129Z,1000.82
2018-07-24T06:14:16.096Z,1000.82
2018-07-24T06:15:16.099Z,1000.82
2018-07-24T06:16:16.115Z,1000.81
2018-07-24T06:17:16.123Z,1000.79
2018-07-24T06:18:16.110Z,1000.78
2018-07-24T06:19:16.112Z,1000.79
2018-07-24T06:20:16.122Z,1000.80
2018-07-24T06:21:16.122Z,1000.78
2018-07-24T06:22:16.125Z,1000.79
2018-07-24T06:23:16.128Z,1000.81
2018-07-24T06:24:16.134Z,1000.81
2018-07-24T06:25:16.145Z,1000.83
2018-07-24T06:26:16.140Z,1000.82
2018-07-24T06:27:16.148Z,1000.80
2018-07-24T06:28:16.151Z,1000.78
2018-07-24T06:29:16.198Z,1000.83
2018-07-24T06:30:16.158Z,1000.78
2018-07-24T06:31:16.163Z,1000.80
2018-07-24T06:32:16.165Z,1000.76
2018-07-24T06:33:16.169Z,1000.75
2018-07-24T06:34:16.173Z,1000.78
2018-07-24T06:35:16.179Z,1000.79
2018-07-24T06:36:16.183Z,1000.76
2018-07-24T06:37:16.185Z,1000.80
2018-07-24T06:38:16.189Z,1000.76
2018-07-24T06:39:16.251Z,1000.75
2018-07-24T06:40:16.198Z,1000.75
2018-07-24T06:41:16.200Z,1000.76
2018-07-24T06:42:16.206Z,1000.77
2018-07-24T06:43:16.210Z,1000.80
2018-07-24T06:44:16.245Z,1000.77
2018-07-24T06:45:16.216Z,1000.76
2018-07-24T06:46:16.222Z,1000.77
2018-07-24T06:47:16.225Z,1000.77
2018-07-24T06:48:16.235Z,1000.73
2018-07-24T06:49:16.236Z,1000.67
2018-07-24T06:50:16.241Z,1000.70
2018-07-24T06:51:16.303Z,1000.69
2018-07-24T06:52:16.251Z,1000.70
2018-07-24T06:53:16.250Z,1000.66
2018-07-24T06:54:16.266Z,1000.68
2018-07-24T06:55:16.294Z,1000.65
2018-07-24T06:56:16.262Z,1000.63
2018-07-24T06:57:16.277Z,1000.63
2018-07-24T06:58:16.271Z,1000.64
2018-07-24T06:59:16.274Z,1000.64
2018-07-24T07:00:16.292Z,1000.62
2018-07-24T07:01:16.285Z,1000.66
2018-07-24T07:02:16.349Z,1000.70
2018-07-24T07:03:16.329Z,1000.65
2018-07-24T07:04:16.305Z,1000.64
2018-07-24T07:05:16.344Z,1000.61
2018-07-24T07:06:16.304Z,1000.61
2018-07-24T07:07:16.307Z,1000.60
2018-07-24T07:08:16.311Z,1000.56
2018-07-24T07:09:16.317Z,1000.56
2018-07-24T07:10:16.412Z,1000.52
2018-07-24T07:11:16.324Z,1000.56
2018-07-24T07:12:16.328Z,1000.52
2018-07-24T07:13:16.400Z,1000.51
2018-07-24T07:14:16.339Z,1000.52
2018-07-24T07:15:16.344Z,1000.53
2018-07-24T07:16:16.390Z,1000.51
2018-07-24T07:17:16.375Z,1000.52
2018-07-24T07:18:16.354Z,1000.52
2018-07-24T07:19:16.403Z,1000.51
2018-07-24T07:20:16.358Z,1000.48
2018-07-24T07:21:16.362Z,1000.49
2018-07-24T07:22:16.365Z,1000.48
2018-07-24T07:23:16.401Z,1000.50
2018-07-24T07:24:16.378Z,1000.49
2018-07-24T07:25:16.396Z,1000.45
2018-07-24T07:26:16.456Z,1000.44
2018-07-24T07:27:16.400Z,1000.44
2018-07-24T07:28:16.397Z,1000.42
2018-07-24T07:29:16.422Z,1000.43
2018-07-24T07:30:16.411Z,1000.38
2018-07-24T07:31:16.408Z,1000.40
2018-07-24T07:32:16.452Z,1000.40
2018-07-24T07:33:16.425Z,1000.36
2018-07-24T07:34:16.415Z,1000.38
2018-07-24T07:35:16.422Z,1000.36
2018-07-24T07:36:16.421Z,1000.38
2018-07-24T07:37:16.431Z,1000.33
2018-07-24T07:38:16.429Z,1000.36
2018-07-24T07:39:16.475Z,1000.38
2018-07-24T07:40:16.438Z,1000.34
2018-07-24T07:41:16.443Z,1000.36
2018-07-24T07:42:16.446Z,1000.31
2018-07-24T07:43:16.452Z,1000.30
2018-07-24T07:44:16.461Z,1000.33
2018-07-24T07:45:16.461Z,1000.26
2018-07-24T07:46:16.462Z,1000.29
2018-07-24T07:47:16.467Z,1000.32
2018-07-24T07:48:16.471Z,1000.29
2018-07-24T07:49:16.474Z,1000.29
2018-07-24T07:50:16.478Z,1000.29
2018-07-24T07:51:16.489Z,1000.26
2018-07-24T07:52:16.487Z,1000.28
2018-07-24T07:53:16.491Z,1000.28
2018-07-24T07:54:16.502Z,1000.26
2018-07-24T07:55:16.501Z,1000.26
2018-07-24T07:56:16.507Z,1000.24
2018-07-24T07:57:16.514Z,1000.25
2018-07-24T07:58:16.523Z,1000.20
2018-07-24T07:59:16.517Z,1000.18
2018-07-24T08:00:16.522Z,1000.21
2018-07-24T08:01:16.524Z,1000.17
2018-07-24T08:02:16.529Z,1000.19
2018-07-24T08:03:16.536Z,1000.19
2018-07-24T08:04:16.589Z,1000.21
2018-07-24T08:05:16.552Z,1000.18
2018-07-24T08:06:16.548Z,1000.21
2018-07-24T08:07:16.550Z,1000.17
2018-07-24T08:08:16.650Z,1000.17
2018-07-24T08:09:16.564Z,1000.19
2018-07-24T08:10:16.570Z,1000.18
2018-07-24T08:11:16.567Z,1000.20
2018-07-24T08:12:16.625Z,1000.14
2018-07-24T08:13:16.574Z,1000.11
2018-07-24T08:14:16.647Z,1000.12
2018-07-24T08:15:16.588Z,1000.15
2018-07-24T08:16:16.589Z,1000.10
2018-07-24T08:17:16.597Z,1000.14
2018-07-24T08:18:16.598Z,1000.11
2018-07-24T08:19:16.632Z,1000.15
2018-07-24T08:20:16.607Z,1000.12
2018-07-24T08:21:16.620Z,1000.13
2018-07-24T08:22:16.652Z,1000.12
2018-07-24T08:23:16.621Z,1000.10
2018-07-24T08:24:16.624Z,1000.08
2018-07-24T08:25:16.626Z,1000.06
2018-07-24T08:26:16.631Z,1000.07
2018-07-24T08:27:16.635Z,1000.05
2018-07-24T08:28:16.752Z,1000.07
2018-07-24T08:29:16.648Z,1000.07
2018-07-24T08:30:16.649Z,1000.03
2018-07-24T08:31:16.654Z,1000.03
2018-07-24T08:32:16.661Z,1000.05
2018-07-24T08:33:16.663Z,1000.08
2018-07-24T08:34:16.668Z,1000.08
2018-07-24T08:35:16.671Z,1000.08
2018-07-24T08:36:16.676Z,1000.06
2018-07-24T08:37:16.680Z,1000.05
2018-07-24T08:38:16.752Z,1000.03
2018-07-24T08:39:16.688Z,1000.05
2018-07-24T08:40:16.694Z,1000.04
2018-07-24T08:41:16.701Z,1000.03
2018-07-24T08:42:16.704Z,1000.03
2018-07-24T08:43:16.708Z,1000.02
2018-07-24T08:44:16.712Z,1000.06
2018-07-24T08:45:16.719Z,1000.04
2018-07-24T08:46:16.723Z,1000.04
2018-07-24T08:47:16.724Z,1000.07
2018-07-24T08:48:16.736Z,1000.05
2018-07-24T08:49:16.841Z,1000.03
2018-07-24T08:50:16.778Z,1000.02
2018-07-24T08:51:16.795Z,1000.04
2018-07-24T08:52:16.754Z,1000.05
2018-07-24T08:53:17.013Z,1000.05
2018-07-24T08:54:16.975Z,1000.03
2018-07-24T08:55:17.053Z,999.96
2018-07-24T08:56:16.782Z,1000.03
2018-07-24T08:57:16.785Z,999.97
2018-07-24T08:58:16.787Z,999.98
2018-07-24T08:59:16.791Z,999.94
2018-07-24T09:00:16.799Z,999.93
2018-07-24T09:01:16.805Z,999.97
2018-07-24T09:02:16.811Z,1000.00
2018-07-24T09:03:16.879Z,999.94
2018-07-24T09:04:16.893Z,1000.00
2018-07-24T09:05:16.835Z,999.95
2018-07-24T09:06:16.843Z,999.91
2018-07-24T09:07:16.857Z,999.95
2018-07-24T09:08:16.957Z,999.92
2018-07-24T09:09:16.868Z,999.91
2018-07-24T09:10:16.932Z,999.94
2018-07-24T09:11:17.074Z,999.90
2018-07-24T09:12:16.901Z,999.90
2018-07-24T09:13:16.903Z,999.91
2018-07-24T09:14:16.917Z,999.95
2018-07-24T09:15:16.926Z,999.98
2018-07-24T09:16:16.934Z,999.92
2018-07-24T09:17:16.943Z,999.95
2018-07-24T09:18:16.953Z,999.93
2018-07-24T09:19:16.965Z,999.90
2018-07-24T09:20:17.006Z,999.87
2018-07-24T09:21:16.996Z,999.90
2018-07-24T09:22:16.995Z,999.91
2018-07-24T09:23:17.006Z,999.85
2018-07-24T09:24:17.031Z,999.91
2018-07-24T09:25:17.029Z,999.90
2018-07-24T09:26:17.042Z,999.88
2018-07-24T09:27:17.054Z,999.92
2018-07-24T09:28:17.065Z,999.91
2018-07-24T09:29:17.076Z,999.91
2018-07-24T09:30:17.089Z,999.93
2018-07-24T09:31:17.122Z,999.90
2018-07-24T09:32:17.116Z,999.90
2018-07-24T09:33:17.127Z,999.87
2018-07-24T09:34:17.141Z,999.91
2018-07-24T09:35:17.152Z,999.84
2018-07-24T09:36:17.165Z,999.84
2018-07-24T09:37:17.178Z,999.82
2018-07-24T09:38:17.267Z,999.82
2018-07-24T09:39:17.204Z,999.80
2018-07-24T09:40:17.223Z,999.79
2018-07-24T09:41:17.232Z,999.81
2018-07-24T09:42:17.246Z,999.81
2018-07-24T09:43:17.258Z,999.82
2018-07-24T09:44:17.274Z,999.80
2018-07-24T09:45:17.303Z,999.80
2018-07-24T09:46:17.303Z,999.79
2018-07-24T09:47:17.317Z,999.76
2018-07-24T09:48:17.339Z,999.76
2018-07-24T09:49:17.346Z,999.73
2018-07-24T09:50:17.362Z,999.73
2018-07-24T09:51:17.377Z,999.71
2018-07-24T09:52:17.393Z,999.79
2018-07-24T09:53:17.414Z,999.78
2018-07-24T09:54:17.430Z,999.79
2018-07-24T09:55:17.436Z,999.74
2018-07-24T09:56:17.457Z,999.73
2018-07-24T09:57:17.467Z,999.73
2018-07-24T09:58:17.487Z,999.71
2018-07-24T09:59:17.517Z,999.72
2018-07-24T10:00:17.516Z,999.70
2018-07-24T10:01:17.550Z,999.70
2018-07-24T10:02:17.548Z,999.60
2018-07-24T10:03:17.579Z,999.63
2018-07-24T10:04:17.621Z,999.63
2018-07-24T10:05:17.650Z,999.59
2018-07-24T10:06:17.612Z,999.65
2018-07-24T10:07:17.627Z,999.66
2018-07-24T10:08:17.652Z,999.65
2018-07-24T10:09:17.660Z,999.60
2018-07-24T10:10:17.674Z,999.60
2018-07-24T10:11:17.714Z,999.58
2018-07-24T10:12:17.750Z,999.63
2018-07-24T10:13:17.839Z,999.60
2018-07-24T10:14:17.786Z,999.61
2018-07-24T10:15:17.758Z,999.56
2018-07-24T10:16:17.765Z,999.54
2018-07-24T10:17:17.780Z,999.55
2018-07-24T10:18:17.793Z,999.53
2018-07-24T10:19:17.808Z,999.48
2018-07-24T10:20:17.820Z,999.51
2018-07-24T10:21:17.833Z,999.48
2018-07-24T10:22:17.924Z,999.49
2018-07-24T10:23:17.856Z,999.50
2018-07-24T10:24:17.883Z,999.53
2018-07-24T10:25:17.879Z,999.52
2018-07-24T10:26:17.894Z,999.50
2018-07-24T10:27:17.908Z,999.54
2018-07-24T10:28:17.914Z,999.45
2018-07-24T10:29:17.926Z,999.45
2018-07-24T10:30:18.059Z,999.45
2018-07-24T10:31:17.949Z,999.39
2018-07-24T10:32:17.962Z,999.43
2018-07-24T10:33:17.972Z,999.41
2018-07-24T10:34:17.980Z,999.39
2018-07-24T10:35:17.992Z,999.40
2018-07-24T10:36:18.006Z,999.36
2018-07-24T10:37:18.023Z,999.38
2018-07-24T10:38:18.040Z,999.38
2018-07-24T10:39:18.044Z,999.37
2018-07-24T10:40:18.671Z,999.33
2018-07-24T10:41:18.074Z,999.33
2018-07-24T10:42:18.092Z,999.32
2018-07-24T10:43:18.100Z,999.32
2018-07-24T10:44:18.115Z,999.26
2018-07-24T10:45:18.132Z,999.24
2018-07-24T10:46:18.142Z,999.27
2018-07-24T10:47:18.161Z,999.24
2018-07-24T10:48:18.185Z,999.21
2018-07-24T10:49:18.229Z,999.20
2018-07-24T10:50:18.206Z,999.15
2018-07-24T10:51:18.220Z,999.15
2018-07-24T10:52:18.236Z,999.19
2018-07-24T10:53:18.252Z,999.18
2018-07-24T10:54:18.266Z,999.15
2018-07-24T10:55:18.283Z,999.13
2018-07-24T10:56:18.299Z,999.10
2018-07-24T10:57:18.316Z,999.07
2018-07-24T10:58:18.330Z,999.14
2018-07-24T10:59:18.349Z,999.09
2018-07-24T11:00:18.366Z,999.08
2018-07-24T11:01:18.386Z,999.00
2018-07-24T11:02:18.405Z,998.98
2018-07-24T11:03:18.414Z,999.02
2018-07-24T11:04:18.431Z,998.98
2018-07-24T11:05:18.478Z,999.02
2018-07-24T11:06:18.470Z,999.06
2018-07-24T11:07:18.484Z,998.99
2018-07-24T11:08:18.594Z,999.02
2018-07-24T11:09:18.519Z,998.97
2018-07-24T11:10:18.547Z,998.93
2018-07-24T11:11:18.553Z,998.94
2018-07-24T11:12:18.576Z,998.98
2018-07-24T11:13:18.588Z,998.97
2018-07-24T11:14:18.606Z,998.95
2018-07-24T11:15:18.625Z,998.98
2018-07-24T11:16:18.680Z,998.97
2018-07-24T11:17:18.661Z,998.94
2018-07-24T11:18:18.683Z,998.94
2018-07-24T11:19:18.697Z,998.96
2018-07-24T11:20:18.717Z,998.93
2018-07-24T11:21:18.745Z,998.87
2018-07-24T11:22:18.842Z,998.92
2018-07-24T11:23:18.858Z,998.87
2018-07-24T11:24:18.790Z,998.89
2018-07-24T11:25:18.804Z,998.78
2018-07-24T11:26:18.823Z,998.82
2018-07-24T11:27:18.846Z,998.84
2018-07-24T11:28:18.900Z,998.76
2018-07-24T11:29:18.881Z,998.77
2018-07-24T11:30:18.893Z,998.79
2018-07-24T11:31:18.979Z,998.78
2018-07-24T11:32:19.099Z,998.78
2018-07-24T11:33:18.983Z,998.81
2018-07-24T11:34:18.972Z,998.78
2018-07-24T11:35:18.981Z,998.78
2018-07-24T11:36:19.085Z,998.77
2018-07-24T11:37:19.017Z,998.79
2018-07-24T11:38:19.037Z,998.72
2018-07-24T11:39:19.055Z,998.74
2018-07-24T11:40:19.072Z,998.75
2018-07-24T11:41:19.090Z,998.72
2018-07-24T11:42:19.109Z,998.76
2018-07-24T11:43:19.127Z,998.75
2018-07-24T11:44:19.147Z,998.73
2018-07-24T11:45:19.165Z,998.71
2018-07-24T11:46:19.184Z,998.68
2018-07-24T11:47:19.203Z,998.74
2018-07-24T11:48:19.248Z,998.73
2018-07-24T11:49:19.252Z,998.72
2018-07-24T11:50:19.267Z,998.70
2018-07-24T11:51:19.279Z,998.65
2018-07-24T11:52:19.299Z,998.73
2018-07-24T11:53:19.316Z,998.66
2018-07-24T11:54:19.335Z,998.64
2018-07-24T11:55:19.409Z,998.73
2018-07-24T11:56:19.379Z,998.67
2018-07-24T11:57:19.407Z,998.76
2018-07-24T11:58:19.411Z,998.71
2018-07-24T11:59:19.427Z,998.73
2018-07-24T12:00:19.446Z,998.63
2018-07-24T12:01:19.463Z,998.62
2018-07-24T12:02:19.489Z,998.61
2018-07-24T12:03:19.504Z,998.61
2018-07-24T12:04:19.523Z,998.59
2018-07-24T12:05:19.547Z,998.62
2018-07-24T12:06:19.560Z,998.58
2018-07-24T12:07:19.579Z,998.54
2018-07-24T12:08:19.597Z,998.49
2018-07-24T12:09:19.614Z,998.52
2018-07-24T12:10:19.634Z,998.53
2018-07-24T12:11:19.657Z,998.46